Saint John, Missouri
Current Conditions -  °F | °C
As of 1:51 PM on Tuesday 21 Oct 2014 (Local Time) from KSTL Reporting Station
Clear Clear  
Wind Chill: 67°   Ceiling: Unl
Heat Index: 67°   Visibility: 10mi
Dew Point: 45°   Wind: 9mph
Humidity: 45%   Direction: 10°N
Pressure: 30.12"   Gusts: NA
Location:  38.702°N, 90.3628°W
Report Text: KSTL 211851Z 01008KT 10SM CLR 19/07 A3012 RMK AO2 SLP197 T01940072
Loading
Personal Weather Stations






























Interactive Weather Map
Tropical Storm Tracking
New forecast layout! Learn more

10-Day Weather Forecast

Advertisements
Track Severe Weather on mobile